createdAt,value
2019-03-24T00:03:59.893Z,66.50
2019-03-24T00:06:28.002Z,68.53
2019-03-24T00:09:10.021Z,62.37
2019-03-24T00:11:51.132Z,69.73
2019-03-24T00:14:33.064Z,66.40
2019-03-24T00:17:15.161Z,67.33
2019-03-24T00:19:57.093Z,66.40
2019-03-24T00:22:39.116Z,67.17
2019-03-24T00:25:20.924Z,60.33
2019-03-24T00:28:02.975Z,63.10
2019-03-24T00:30:45.037Z,65.23
2019-03-24T00:33:26.102Z,63.90
2019-03-24T00:36:07.212Z,62.33
2019-03-24T00:38:48.960Z,74.33
2019-03-24T00:41:31.032Z,73.97
2019-03-24T00:44:12.841Z,72.30
2019-03-24T00:46:54.862Z,70.10
2019-03-24T00:49:36.734Z,65.47
2019-03-24T00:52:18.696Z,61.73
2019-03-24T00:55:00.672Z,65.97
2019-03-24T00:57:42.573Z,61.23
2019-03-24T01:00:24.499Z,63.27
2019-03-24T01:03:06.404Z,64.03
2019-03-24T01:05:48.408Z,61.37
2019-03-24T01:08:30.263Z,59.63
2019-03-24T01:11:12.100Z,57.90
2019-03-24T01:13:53.124Z,61.90
2019-03-24T01:16:34.849Z,56.50
2019-03-24T01:19:16.202Z,64.20
2019-03-24T01:21:57.509Z,63.93
2019-03-24T01:24:39.559Z,67.00
2019-03-24T01:27:21.472Z,57.57
2019-03-24T01:30:03.590Z,65.13
2019-03-24T01:32:45.228Z,63.30
2019-03-24T01:35:27.109Z,56.60
2019-03-24T01:37:55.203Z,62.97
2019-03-24T01:40:36.736Z,62.30
2019-03-24T01:43:17.711Z,68.70
2019-03-24T01:45:59.444Z,62.73
2019-03-24T01:48:41.339Z,64.53
2019-03-24T01:51:23.323Z,57.83
2019-03-24T01:54:05.407Z,66.43
2019-03-24T01:56:47.539Z,66.20
2019-03-24T01:59:29.361Z,62.63
2019-03-24T02:02:12.116Z,69.57
2019-03-24T02:04:54.296Z,69.33
2019-03-24T02:07:36.117Z,62.80
2019-03-24T02:10:17.281Z,60.87
2019-03-24T02:12:59.118Z,68.70
2019-03-24T02:15:41.131Z,65.83
2019-03-24T02:18:23.156Z,69.40
2019-03-24T02:21:05.040Z,70.10
2019-03-24T02:23:46.869Z,69.77
2019-03-24T02:26:28.829Z,68.23
2019-03-24T02:29:10.459Z,63.30
2019-03-24T02:31:52.494Z,70.97
2019-03-24T02:34:34.513Z,77.27
2019-03-24T02:37:16.664Z,68.00
2019-03-24T02:39:58.832Z,67.40
2019-03-24T02:42:39.837Z,73.13
2019-03-24T02:45:27.493Z,72.10
2019-03-24T02:48:09.583Z,69.57
2019-03-24T02:50:51.500Z,68.83
2019-03-24T02:53:33.391Z,68.60
2019-03-24T02:56:15.374Z,71.53
2019-03-24T02:58:57.217Z,69.50
2019-03-24T03:01:39.180Z,77.83
2019-03-24T03:04:21.133Z,78.67
2019-03-24T03:07:03.080Z,81.57
2019-03-24T03:09:44.928Z,75.60
2019-03-24T03:12:26.821Z,81.10
2019-03-24T03:15:08.754Z,76.83
2019-03-24T03:17:50.837Z,74.80
2019-03-24T03:20:32.732Z,81.20
2019-03-24T03:23:13.881Z,77.37
2019-03-24T03:25:55.089Z,82.83
2019-03-24T03:28:38.094Z,83.87
2019-03-24T03:31:19.810Z,75.80
2019-03-24T03:34:01.777Z,74.57
2019-03-24T03:36:29.901Z,80.87
2019-03-24T03:39:11.779Z,76.87
2019-03-24T03:41:53.709Z,88.67
2019-03-24T03:44:35.746Z,80.23
2019-03-24T03:47:17.513Z,89.47
2019-03-24T03:49:59.575Z,89.87
2019-03-24T03:52:41.673Z,93.00
2019-03-24T03:55:23.499Z,77.60
2019-03-24T03:58:05.499Z,90.50
2019-03-24T04:00:47.477Z,92.97
2019-03-24T04:03:29.536Z,84.03
2019-03-24T04:06:11.511Z,90.50
2019-03-24T04:08:53.440Z,104.57
2019-03-24T04:11:35.205Z,95.70
2019-03-24T04:14:17.269Z,90.80
2019-03-24T04:17:06.792Z,85.40
2019-03-24T04:19:42.236Z,92.20
2019-03-24T04:22:10.393Z,85.67
2019-03-24T04:24:52.092Z,89.97
2019-03-24T04:27:33.910Z,90.67
2019-03-24T04:30:17.799Z,82.50
2019-03-24T04:32:59.825Z,90.00
2019-03-24T04:35:41.850Z,85.80
2019-03-24T04:38:22.769Z,98.93
2019-03-24T04:41:04.829Z,92.93
2019-03-24T04:43:46.738Z,94.57
2019-03-24T04:46:28.759Z,96.63
2019-03-24T04:49:10.663Z,87.87
2019-03-24T04:51:52.431Z,99.43
2019-03-24T04:54:34.378Z,94.77
2019-03-24T04:57:35.255Z,97.87
2019-03-24T05:00:17.204Z,84.67
2019-03-24T05:02:59.101Z,99.27
2019-03-24T05:05:41.152Z,95.07
2019-03-24T05:08:23.076Z,104.90
2019-03-24T05:11:05.057Z,93.83
2019-03-24T05:13:46.760Z,85.20
2019-03-24T05:16:28.888Z,101.90
2019-03-24T05:19:10.926Z,94.80
2019-03-24T05:21:52.756Z,87.83
2019-03-24T05:24:34.013Z,85.20
2019-03-24T05:27:15.971Z,83.40
2019-03-24T05:29:58.061Z,86.53
2019-03-24T05:32:40.053Z,84.13
2019-03-24T05:35:21.894Z,92.63
2019-03-24T05:38:05.949Z,92.20
2019-03-24T05:40:47.865Z,81.50
2019-03-24T05:43:29.751Z,97.40
2019-03-24T05:46:11.075Z,93.00
2019-03-24T05:48:54.114Z,91.30
2019-03-24T05:51:35.986Z,94.97
2019-03-24T05:54:17.811Z,86.77
2019-03-24T05:56:59.649Z,98.40
2019-03-24T05:59:41.558Z,81.00
2019-03-24T06:02:23.510Z,84.87
2019-03-24T06:05:05.534Z,82.67
2019-03-24T06:07:46.695Z,87.30
2019-03-24T06:10:28.517Z,85.90
2019-03-24T06:13:10.435Z,83.60
2019-03-24T06:15:38.605Z,92.50
2019-03-24T06:18:20.243Z,81.67
2019-03-24T06:21:02.155Z,92.57
2019-03-24T06:23:46.019Z,81.23
2019-03-24T06:26:27.192Z,96.03
2019-03-24T06:29:09.179Z,100.77
2019-03-24T06:31:50.386Z,92.00
2019-03-24T06:34:32.211Z,86.40
2019-03-24T06:37:14.369Z,92.17
2019-03-24T06:39:56.296Z,88.70
2019-03-24T06:42:38.144Z,81.07
2019-03-24T06:45:28.271Z,84.87
2019-03-24T06:48:05.027Z,69.40
2019-03-24T06:50:46.828Z,79.33
2019-03-24T06:53:28.800Z,81.63
2019-03-24T06:56:10.972Z,68.53
2019-03-24T06:58:52.823Z,88.80
2019-03-24T07:01:34.642Z,82.07
2019-03-24T07:04:16.843Z,73.90
2019-03-24T07:06:58.473Z,75.53
2019-03-24T07:09:40.523Z,75.30
2019-03-24T07:12:22.446Z,73.50
2019-03-24T07:15:06.276Z,79.50
2019-03-24T07:17:49.128Z,70.00
2019-03-24T07:20:31.085Z,72.43
2019-03-24T07:23:13.239Z,69.97
2019-03-24T07:25:55.008Z,63.20
2019-03-24T07:28:37.284Z,73.53
2019-03-24T07:31:18.856Z,73.77
2019-03-24T07:34:00.932Z,68.47
2019-03-24T07:36:42.774Z,78.20
2019-03-24T07:39:10.896Z,77.00
2019-03-24T07:41:39.007Z,67.77
2019-03-24T07:44:07.120Z,67.30
2019-03-24T07:46:49.203Z,68.27
2019-03-24T07:49:31.193Z,71.57
2019-03-24T07:52:13.276Z,62.53
2019-03-24T07:54:55.095Z,64.73
2019-03-24T07:57:36.919Z,68.57
2019-03-24T08:00:18.984Z,64.60
2019-03-24T08:02:59.921Z,58.30
2019-03-24T08:05:42.084Z,66.90
2019-03-24T08:08:26.031Z,58.10
2019-03-24T08:11:07.849Z,68.47
2019-03-24T08:13:53.964Z,65.33
2019-03-24T08:16:32.576Z,64.40
2019-03-24T08:19:14.426Z,65.77
2019-03-24T08:21:56.228Z,64.43
2019-03-24T08:24:37.991Z,64.37
2019-03-24T08:27:20.076Z,64.30
2019-03-24T08:30:02.041Z,63.00
2019-03-24T08:32:44.048Z,59.80
2019-03-24T08:35:26.153Z,51.73
2019-03-24T08:38:07.980Z,54.83
2019-03-24T08:40:50.040Z,84.27
2019-03-24T08:43:32.044Z,55.97
2019-03-24T08:46:13.971Z,64.77
2019-03-24T08:48:55.942Z,55.03
2019-03-24T08:51:37.164Z,58.60
2019-03-24T08:54:19.183Z,58.70
2019-03-24T08:57:01.033Z,58.00
2019-03-24T08:59:29.211Z,66.67
2019-03-24T09:02:10.844Z,77.03
2019-03-24T09:04:52.747Z,55.20
2019-03-24T09:07:33.813Z,52.73
2019-03-24T09:10:15.752Z,61.20
2019-03-24T09:12:57.701Z,58.27
2019-03-24T09:15:39.741Z,62.47
2019-03-24T09:18:21.616Z,64.27
2019-03-24T09:21:04.455Z,55.50
2019-03-24T09:23:46.195Z,57.13
2019-03-24T09:26:28.159Z,48.90
2019-03-24T09:31:51.224Z,47.67
2019-03-24T09:34:33.073Z,65.53
2019-03-24T09:37:15.146Z,59.37
2019-03-24T09:39:57.056Z,47.00
2019-03-24T09:42:39.151Z,47.73
2019-03-24T09:45:20.900Z,57.37
2019-03-24T09:48:02.958Z,53.60
2019-03-24T09:50:45.143Z,49.73
2019-03-24T09:53:26.848Z,63.07
2019-03-24T09:55:55.039Z,55.47
2019-03-24T09:58:36.706Z,46.97
2019-03-24T10:01:18.700Z,52.90
2019-03-24T10:04:00.565Z,51.50
2019-03-24T10:06:42.623Z,54.63
2019-03-24T10:09:26.831Z,55.93
2019-03-24T10:12:08.892Z,59.53
2019-03-24T10:14:50.968Z,60.10
2019-03-24T10:17:33.164Z,59.57
2019-03-24T10:20:14.607Z,50.10
2019-03-24T10:22:56.176Z,51.43
2019-03-24T10:25:38.259Z,46.30
2019-03-24T10:28:20.244Z,37.20
2019-03-24T10:31:02.174Z,46.90
2019-03-24T10:36:24.843Z,47.20
2019-03-24T10:39:06.773Z,51.00
2019-03-24T10:41:48.804Z,54.97
2019-03-24T10:44:30.884Z,44.13
2019-03-24T10:47:12.559Z,49.43
2019-03-24T10:49:55.711Z,45.47
2019-03-24T10:52:37.791Z,43.17
2019-03-24T10:55:18.767Z,42.93
2019-03-24T10:58:02.896Z,49.90
2019-03-24T11:00:44.595Z,44.13
2019-03-24T11:03:26.643Z,45.30
2019-03-24T11:06:54.808Z,50.00
2019-03-24T11:09:36.745Z,42.43
2019-03-24T11:15:23.780Z,43.57
2019-03-24T11:18:05.755Z,37.10
2019-03-24T11:20:47.495Z,52.10
2019-03-24T11:23:29.547Z,40.90
2019-03-24T11:26:11.590Z,37.43
2019-03-24T11:28:53.740Z,39.53
2019-03-24T11:31:35.652Z,40.67
2019-03-24T11:34:17.725Z,40.13
2019-03-24T11:36:59.864Z,69.17
2019-03-24T11:39:41.989Z,44.83
2019-03-24T11:42:23.932Z,42.87
2019-03-24T11:45:05.568Z,40.33
2019-03-24T11:47:33.867Z,45.03
2019-03-24T11:50:16.507Z,40.97
2019-03-24T11:52:58.487Z,35.27
2019-03-24T11:55:40.585Z,38.50
2019-03-24T11:58:22.315Z,47.20
2019-03-24T12:01:04.199Z,37.40
2019-03-24T12:03:46.656Z,40.10
2019-03-24T12:06:15.167Z,40.63
2019-03-24T12:09:12.700Z,35.10
2019-03-24T12:11:54.660Z,43.80
2019-03-24T12:14:36.619Z,41.13
2019-03-24T12:17:18.368Z,37.60
2019-03-24T12:20:00.396Z,41.43
2019-03-24T12:22:42.312Z,39.10
2019-03-24T12:25:24.479Z,40.33
2019-03-24T12:28:06.259Z,37.27
2019-03-24T12:30:47.348Z,40.67
2019-03-24T12:33:29.187Z,40.90
2019-03-24T12:36:11.172Z,33.03
2019-03-24T12:38:53.282Z,38.60
2019-03-24T12:41:35.197Z,35.23
2019-03-24T12:44:17.010Z,39.90
2019-03-24T12:46:59.081Z,74.53
2019-03-24T12:49:40.877Z,34.60
2019-03-24T12:52:22.812Z,38.07
2019-03-24T12:55:04.996Z,40.63
2019-03-24T12:57:46.975Z,32.60
2019-03-24T13:00:28.888Z,32.27
2019-03-24T13:03:10.671Z,33.20
2019-03-24T13:05:52.526Z,30.53
2019-03-24T13:08:34.562Z,38.10
2019-03-24T13:11:16.576Z,48.63
2019-03-24T13:13:57.447Z,46.83
2019-03-24T13:16:41.891Z,29.90
2019-03-24T13:19:24.267Z,33.07
2019-03-24T13:22:06.312Z,34.47
2019-03-24T13:24:48.177Z,31.47
2019-03-24T13:27:30.254Z,30.90
2019-03-24T13:30:13.979Z,35.73
2019-03-24T13:32:56.025Z,34.20
2019-03-24T13:35:37.920Z,41.27
2019-03-24T13:38:19.968Z,32.57
2019-03-24T13:41:01.146Z,29.43
2019-03-24T13:43:43.296Z,41.20
2019-03-24T13:46:25.015Z,39.33
2019-03-24T13:49:06.856Z,35.13
2019-03-24T13:51:48.058Z,38.60
2019-03-24T13:54:30.009Z,37.03
2019-03-24T13:57:11.803Z,37.10
2019-03-24T13:59:53.660Z,51.13
2019-03-24T14:02:35.884Z,53.13
2019-03-24T14:05:18.744Z,45.60
2019-03-24T14:07:47.107Z,37.77
2019-03-24T14:10:29.510Z,40.77
2019-03-24T14:13:11.567Z,38.40
2019-03-24T14:15:53.520Z,45.50
2019-03-24T14:18:35.766Z,37.07
2019-03-24T14:21:17.448Z,35.47
2019-03-24T14:23:59.527Z,42.60
2019-03-24T14:26:41.741Z,39.40
2019-03-24T14:29:23.628Z,39.37
2019-03-24T14:32:05.785Z,47.03
2019-03-24T14:34:48.376Z,44.17
2019-03-24T14:37:30.296Z,45.50
2019-03-24T14:40:12.373Z,42.77
2019-03-24T14:42:54.479Z,52.43
2019-03-24T14:45:36.515Z,40.93
2019-03-24T14:48:18.469Z,41.20
2019-03-24T14:51:00.588Z,46.97
2019-03-24T14:53:42.261Z,42.17
2019-03-24T14:56:24.328Z,46.53
2019-03-24T14:59:06.406Z,46.63
2019-03-24T15:01:48.459Z,45.27
2019-03-24T15:04:30.196Z,39.13
2019-03-24T15:07:12.115Z,45.20
2019-03-24T15:09:54.291Z,47.90
2019-03-24T15:12:36.089Z,48.40
2019-03-24T15:15:17.820Z,43.60
2019-03-24T15:17:59.892Z,48.13
2019-03-24T15:20:41.690Z,46.43
2019-03-24T15:23:23.732Z,36.67
2019-03-24T15:26:05.631Z,41.07
2019-03-24T15:28:47.672Z,40.17
2019-03-24T15:31:29.751Z,44.40
2019-03-24T15:34:11.779Z,37.70
2019-03-24T15:36:53.747Z,45.17
2019-03-24T15:39:35.604Z,47.17
2019-03-24T15:42:17.648Z,46.33
2019-03-24T15:44:59.620Z,45.73
2019-03-24T15:47:41.477Z,42.17
2019-03-24T15:50:23.523Z,36.33
2019-03-24T15:53:05.415Z,47.83
2019-03-24T15:55:47.615Z,37.80
2019-03-24T15:58:31.665Z,38.30
2019-03-24T16:01:13.521Z,38.00
2019-03-24T16:03:55.784Z,36.37
2019-03-24T16:06:39.584Z,35.43
2019-03-24T16:09:21.457Z,39.20
2019-03-24T16:12:02.650Z,37.73
2019-03-24T16:14:43.629Z,41.83
2019-03-24T16:17:25.667Z,41.20
2019-03-24T16:20:07.799Z,36.83
2019-03-24T16:22:50.032Z,44.93
2019-03-24T16:25:31.931Z,37.20
2019-03-24T16:28:13.951Z,43.43
2019-03-24T16:30:56.003Z,35.23
2019-03-24T16:33:37.857Z,43.97
2019-03-24T16:36:19.643Z,42.30
2019-03-24T16:39:04.049Z,33.37
2019-03-24T16:41:45.511Z,45.27
2019-03-24T16:44:27.633Z,32.87
2019-03-24T16:47:09.241Z,36.43
2019-03-24T16:49:51.267Z,36.63
2019-03-24T16:52:33.435Z,42.03
2019-03-24T16:55:15.308Z,39.10
2019-03-24T16:57:57.243Z,36.20
2019-03-24T17:00:39.307Z,41.07
2019-03-24T17:03:22.300Z,36.17
2019-03-24T17:06:04.240Z,33.33
2019-03-24T17:08:46.178Z,42.17
2019-03-24T17:11:29.268Z,41.93
2019-03-24T17:14:11.383Z,42.47
2019-03-24T17:16:53.929Z,39.67
2019-03-24T17:19:35.971Z,29.30
2019-03-24T17:22:18.328Z,38.67
2019-03-24T17:25:00.403Z,42.50
2019-03-24T17:27:42.091Z,50.93
2019-03-24T17:30:24.220Z,34.77
2019-03-24T17:33:06.231Z,37.07
2019-03-24T17:35:48.336Z,40.63
2019-03-24T17:38:30.888Z,43.90
2019-03-24T17:41:15.353Z,41.60
2019-03-24T17:44:03.076Z,32.13
2019-03-24T17:46:41.704Z,48.27
2019-03-24T17:49:23.796Z,44.97
2019-03-24T17:52:05.698Z,62.23
2019-03-24T17:54:47.769Z,43.63
2019-03-24T17:57:29.803Z,37.23
2019-03-24T18:00:12.227Z,30.30
2019-03-24T18:02:53.756Z,32.33
2019-03-24T18:05:36.823Z,38.70
2019-03-24T18:08:18.747Z,34.73
2019-03-24T18:11:00.735Z,40.83
2019-03-24T18:13:42.739Z,35.67
2019-03-24T18:16:24.378Z,36.13
2019-03-24T18:19:06.327Z,43.90
2019-03-24T18:21:48.307Z,41.20
2019-03-24T18:24:30.225Z,37.07
2019-03-24T18:27:11.312Z,36.20
2019-03-24T18:29:53.289Z,39.87
2019-03-24T18:32:35.275Z,36.50
2019-03-24T18:35:17.356Z,35.10
2019-03-24T18:37:59.351Z,36.13
2019-03-24T18:40:41.356Z,35.60
2019-03-24T18:43:23.300Z,35.90
2019-03-24T18:46:05.468Z,50.40
2019-03-24T18:48:47.420Z,39.13
2019-03-24T18:51:28.500Z,38.80
2019-03-24T18:54:10.544Z,50.07
2019-03-24T18:56:54.575Z,44.43
2019-03-24T18:59:41.145Z,49.73
2019-03-24T19:02:23.410Z,34.40
2019-03-24T19:05:05.512Z,38.87
2019-03-24T19:07:46.685Z,42.43
2019-03-24T19:10:28.691Z,50.87
2019-03-24T19:13:12.668Z,43.40
2019-03-24T19:15:54.404Z,54.97
2019-03-24T19:18:36.341Z,45.77
2019-03-24T19:21:18.347Z,40.20
2019-03-24T19:24:00.464Z,30.23
2019-03-24T19:26:42.477Z,35.67
2019-03-24T19:29:24.260Z,38.00
2019-03-24T19:32:06.287Z,38.57
2019-03-24T19:34:48.321Z,44.13
2019-03-24T19:37:30.538Z,31.93
2019-03-24T19:40:13.140Z,33.20
2019-03-24T19:42:55.539Z,39.13
2019-03-24T19:45:37.902Z,40.80
2019-03-24T19:48:20.396Z,32.73
2019-03-24T19:51:02.977Z,43.30
2019-03-24T19:53:45.076Z,44.47
2019-03-24T19:56:26.241Z,47.03
2019-03-24T19:59:07.482Z,33.03
2019-03-24T20:01:49.348Z,35.40
2019-03-24T20:04:31.539Z,33.50
2019-03-24T20:07:13.485Z,45.00
2019-03-24T20:09:55.404Z,38.37
2019-03-24T20:12:37.524Z,36.40
2019-03-24T20:15:19.380Z,44.87
2019-03-24T20:18:01.423Z,33.70
2019-03-24T20:20:44.240Z,32.13
2019-03-24T20:23:27.476Z,37.93
2019-03-24T20:26:09.021Z,36.47
2019-03-24T20:28:51.092Z,28.33
2019-03-24T20:31:32.942Z,35.77
2019-03-24T20:34:14.733Z,38.40
2019-03-24T20:36:55.918Z,47.80
2019-03-24T20:39:37.577Z,44.37
2019-03-24T20:42:19.504Z,35.17
2019-03-24T20:45:01.490Z,51.90
2019-03-24T20:47:43.364Z,43.60
2019-03-24T20:50:25.597Z,38.73
2019-03-24T20:53:17.676Z,44.17
2019-03-24T20:55:51.307Z,51.33
2019-03-24T20:58:33.242Z,42.97
2019-03-24T21:01:15.138Z,40.63
2019-03-24T21:03:57.152Z,48.17
2019-03-24T21:06:39.240Z,44.80
2019-03-24T21:09:21.192Z,46.40
2019-03-24T21:12:03.102Z,46.93
2019-03-24T21:14:45.040Z,49.30
2019-03-24T21:17:26.907Z,48.40
2019-03-24T21:20:07.983Z,45.73
2019-03-24T21:22:49.833Z,35.77
2019-03-24T21:25:31.854Z,32.83
2019-03-24T21:28:13.843Z,49.00
2019-03-24T21:30:55.711Z,58.93
2019-03-24T21:33:37.565Z,54.90
2019-03-24T21:36:19.678Z,59.70
2019-03-24T21:39:02.301Z,65.50
2019-03-24T21:41:45.248Z,70.83
2019-03-24T21:44:27.075Z,74.43
2019-03-24T21:47:09.174Z,68.63
2019-03-24T21:49:50.953Z,76.20
2019-03-24T21:52:32.774Z,68.17
2019-03-24T21:55:14.722Z,77.47
2019-03-24T21:57:57.777Z,82.43
2019-03-24T22:00:39.861Z,92.80
2019-03-24T22:03:21.750Z,77.90
2019-03-24T22:06:03.648Z,90.30
2019-03-24T22:08:45.572Z,85.80
2019-03-24T22:11:27.663Z,90.70
2019-03-24T22:14:09.586Z,93.73
2019-03-24T22:16:51.572Z,82.80
2019-03-24T22:19:32.620Z,80.93
2019-03-24T22:22:14.522Z,79.87
2019-03-24T22:24:56.423Z,76.20
2019-03-24T22:27:38.335Z,76.30
2019-03-24T22:30:22.224Z,84.60
2019-03-24T22:33:04.154Z,81.83
2019-03-24T22:35:47.263Z,79.17
2019-03-24T22:38:28.959Z,73.00
2019-03-24T22:41:11.053Z,71.70
2019-03-24T22:43:52.132Z,82.43
2019-03-24T22:46:34.309Z,93.97
2019-03-24T22:49:16.256Z,90.37
2019-03-24T22:52:06.845Z,84.60
2019-03-24T22:54:42.079Z,76.77
2019-03-24T22:57:24.256Z,75.70
2019-03-24T23:00:10.256Z,81.40
2019-03-24T23:02:53.036Z,88.13
2019-03-24T23:05:35.021Z,84.93
2019-03-24T23:08:17.125Z,88.10
2019-03-24T23:11:01.003Z,71.13
2019-03-24T23:13:43.240Z,86.03
2019-03-24T23:16:25.041Z,94.80
2019-03-24T23:19:07.165Z,87.63
2019-03-24T23:21:49.516Z,86.63
2019-03-24T23:24:31.740Z,96.27
2019-03-24T23:27:13.760Z,73.57
2019-03-24T23:29:56.666Z,77.40
2019-03-24T23:32:38.608Z,71.60
2019-03-24T23:35:20.442Z,75.47
2019-03-24T23:38:02.256Z,70.87
2019-03-24T23:40:44.314Z,73.33
2019-03-24T23:43:26.375Z,70.07
2019-03-24T23:46:08.606Z,69.93
2019-03-24T23:48:51.119Z,64.93
2019-03-24T23:51:32.904Z,65.87
2019-03-24T23:54:26.197Z,68.60
2019-03-24T23:56:58.855Z,70.17
2019-03-24T23:59:40.444Z,67.43
